createdAt,value
2019-03-05T00:00:28.177Z,75.70
2019-03-05T00:02:56.115Z,75.90
2019-03-05T00:05:25.302Z,76.50
2019-03-05T00:07:53.700Z,76.70
2019-03-05T00:10:21.702Z,75.20
2019-03-05T00:12:50.128Z,75.60
2019-03-05T00:15:20.724Z,75.10
2019-03-05T00:17:48.905Z,75.80
2019-03-05T00:20:16.867Z,75.80
2019-03-05T00:22:44.842Z,75.20
2019-03-05T00:25:17.932Z,74.70
2019-03-05T00:28:09.843Z,73.80
2019-03-05T00:34:19.609Z,72.90
2019-03-05T00:37:03.543Z,73.40
2019-03-05T00:40:44.417Z,73.50
2019-03-05T00:44:09.903Z,73.40
2019-03-05T00:47:24.182Z,73.90
2019-03-05T00:50:45.524Z,73.50
2019-03-05T00:54:05.224Z,74.40
2019-03-05T00:57:10.501Z,74.30
2019-03-05T01:00:33.369Z,74.20
2019-03-05T01:03:27.058Z,74.10
2019-03-05T01:06:23.734Z,73.90
2019-03-05T01:08:53.322Z,72.40
2019-03-05T01:11:21.924Z,72.50
2019-03-05T01:13:50.051Z,72.90
2019-03-05T01:18:50.065Z,72.40
2019-03-05T01:21:18.228Z,73.00
2019-03-05T01:23:46.477Z,73.30
2019-03-05T01:26:14.564Z,73.80
2019-03-05T01:28:43.239Z,73.30
2019-03-05T01:31:28.756Z,73.80
2019-03-05T01:34:07.459Z,73.50
2019-03-05T01:36:39.617Z,74.40
2019-03-05T01:39:28.588Z,73.70
2019-03-05T01:41:56.763Z,72.80
2019-03-05T01:44:24.760Z,73.00
2019-03-05T01:46:52.750Z,73.50
2019-03-05T01:51:48.699Z,72.70
2019-03-05T01:54:16.805Z,73.60
2019-03-05T01:56:44.893Z,73.30
2019-03-05T01:59:13.060Z,74.00
2019-03-05T02:01:41.529Z,73.10
2019-03-05T02:04:09.547Z,74.30
2019-03-05T02:06:37.728Z,73.60
2019-03-05T02:09:08.059Z,74.80
2019-03-05T02:11:36.660Z,74.00
2019-03-05T02:14:05.785Z,74.40
2019-03-05T02:16:33.882Z,74.40
2019-03-05T02:19:41.110Z,74.40
2019-03-05T02:22:29.491Z,74.00
2019-03-05T02:25:30.953Z,74.10
2019-03-05T02:28:56.630Z,72.60
2019-03-05T02:32:18.962Z,73.10
2019-03-05T02:35:07.499Z,73.60
2019-03-05T02:38:39.467Z,73.90
2019-03-05T02:41:57.555Z,74.00
2019-03-05T02:45:08.842Z,74.10
2019-03-05T02:48:30.439Z,74.50
2019-03-05T02:51:35.015Z,74.50
2019-03-05T02:54:50.673Z,74.70
2019-03-05T02:57:17.141Z,74.90
2019-03-05T02:59:45.183Z,75.40
2019-03-05T03:02:28.521Z,75.00
2019-03-05T03:05:07.236Z,74.60
2019-03-05T03:07:35.729Z,75.00
2019-03-05T03:10:19.238Z,74.90
2019-03-05T03:12:47.274Z,75.20
2019-03-05T03:15:16.947Z,75.30
2019-03-05T03:17:45.305Z,75.00
2019-03-05T03:20:19.047Z,75.00
2019-03-05T03:22:47.037Z,74.80
2019-03-05T03:25:18.710Z,73.70
2019-03-05T03:27:46.804Z,73.80
2019-03-05T03:30:21.187Z,74.10
2019-03-05T03:35:17.247Z,73.60
2019-03-05T03:37:45.384Z,74.40
2019-03-05T03:40:16.689Z,73.70
2019-03-05T03:42:44.895Z,74.20
2019-03-05T03:45:20.386Z,74.50
2019-03-05T03:47:48.683Z,74.40
2019-03-05T03:50:16.961Z,75.00
2019-03-05T03:52:45.004Z,74.40
2019-03-05T03:55:13.637Z,74.40
2019-03-05T03:57:41.973Z,74.40
2019-03-05T04:00:16.929Z,74.30
2019-03-05T04:02:44.927Z,75.00
2019-03-05T04:05:13.313Z,75.20
2019-03-05T04:07:41.297Z,75.40
2019-03-05T04:10:10.135Z,75.60
2019-03-05T04:12:38.142Z,75.70
2019-03-05T04:15:08.738Z,75.80
2019-03-05T04:17:36.793Z,75.00
2019-03-05T04:20:05.747Z,75.50
2019-03-05T04:22:34.061Z,75.60
2019-03-05T04:25:02.297Z,75.30
2019-03-05T04:29:58.305Z,75.50
2019-03-05T04:32:26.336Z,76.10
2019-03-05T04:34:54.686Z,76.30
2019-03-05T04:37:22.688Z,76.30
2019-03-05T04:42:19.663Z,75.60
2019-03-05T04:45:07.285Z,75.20
2019-03-05T04:47:35.316Z,75.20
2019-03-05T04:50:11.476Z,75.70
2019-03-05T04:52:39.561Z,75.30
2019-03-05T04:55:07.990Z,75.00
2019-03-05T04:57:36.106Z,75.40
2019-03-05T05:02:35.745Z,74.50
2019-03-05T05:05:04.177Z,75.50
2019-03-05T05:07:32.275Z,75.60
2019-03-05T05:10:00.347Z,75.00
2019-03-05T05:12:28.497Z,75.30
2019-03-05T05:14:57.120Z,75.90
2019-03-05T05:17:25.185Z,75.60
2019-03-05T05:19:53.365Z,75.80
2019-03-05T05:22:21.658Z,75.40
2019-03-05T05:24:49.794Z,75.50
2019-03-05T05:27:18.149Z,74.80
2019-03-05T05:29:46.481Z,75.30
2019-03-05T05:32:14.816Z,75.50
2019-03-05T05:37:12.772Z,73.90
2019-03-05T05:40:24.658Z,73.80
2019-03-05T05:42:52.764Z,74.20
2019-03-05T05:45:22.883Z,73.50
2019-03-05T05:47:51.017Z,74.20
2019-03-05T05:50:19.430Z,73.70
2019-03-05T05:52:48.531Z,74.10
2019-03-05T05:55:16.567Z,74.30
2019-03-05T05:57:44.618Z,74.10
2019-03-05T06:00:14.680Z,74.20
2019-03-05T06:02:42.719Z,73.80
2019-03-05T06:07:41.432Z,73.20
2019-03-05T06:10:11.994Z,73.00
2019-03-05T06:12:41.055Z,72.60
2019-03-05T06:15:11.676Z,72.60
2019-03-05T06:17:41.594Z,73.20
2019-03-05T06:20:11.582Z,73.10
2019-03-05T06:25:08.318Z,71.30
2019-03-05T06:27:36.361Z,71.60
2019-03-05T06:30:07.777Z,71.00
2019-03-05T06:32:35.901Z,71.10
2019-03-05T06:35:04.504Z,70.50
2019-03-05T06:37:33.203Z,70.00
2019-03-05T06:40:01.718Z,69.50
2019-03-05T06:42:30.139Z,68.50
2019-03-05T06:44:58.436Z,69.10
2019-03-05T06:47:26.464Z,67.70
2019-03-05T06:49:54.524Z,68.30
2019-03-05T06:52:22.773Z,66.60
2019-03-05T06:54:51.026Z,67.20
2019-03-05T06:57:19.097Z,67.30
2019-03-05T06:59:47.598Z,67.20
2019-03-05T07:02:15.651Z,66.40
2019-03-05T07:04:55.711Z,66.10
2019-03-05T07:07:25.666Z,66.70
2019-03-05T07:10:31.516Z,67.20
2019-03-05T07:13:13.423Z,67.20
2019-03-05T07:16:36.563Z,67.40
2019-03-05T07:19:57.593Z,66.90
2019-03-05T07:22:46.842Z,67.20
2019-03-05T07:25:14.846Z,66.60
2019-03-05T07:27:50.751Z,66.60
2019-03-05T07:30:26.594Z,66.10
2019-03-05T07:32:57.062Z,66.00
2019-03-05T07:35:27.964Z,65.50
2019-03-05T07:37:56.077Z,64.90
2019-03-05T07:40:24.210Z,64.20
2019-03-05T07:42:52.432Z,62.10
2019-03-05T07:45:20.478Z,62.90
2019-03-05T07:47:48.962Z,62.20
2019-03-05T07:52:45.242Z,59.70
2019-03-05T07:55:15.856Z,59.00
2019-03-05T07:57:45.123Z,59.20
2019-03-05T08:00:16.745Z,58.60
2019-03-05T08:02:44.937Z,59.40
2019-03-05T08:05:13.932Z,58.70
2019-03-05T08:07:42.121Z,59.00
2019-03-05T08:10:27.438Z,59.30
2019-03-05T08:13:27.030Z,59.40
2019-03-05T08:16:14.206Z,59.00
2019-03-05T08:18:44.197Z,59.60
2019-03-05T08:21:12.354Z,59.40
2019-03-05T08:23:41.003Z,59.60
2019-03-05T08:26:09.159Z,56.80
2019-03-05T08:28:38.424Z,57.20
2019-03-05T08:31:06.525Z,58.10
2019-03-05T08:33:34.959Z,57.40
2019-03-05T08:36:04.283Z,57.40
2019-03-05T08:38:32.631Z,58.00
2019-03-05T08:41:00.760Z,57.60
2019-03-05T08:43:28.741Z,57.70
2019-03-05T08:45:56.744Z,56.40
2019-03-05T08:48:25.559Z,56.90
2019-03-05T08:50:54.652Z,56.50
2019-03-05T08:53:22.724Z,54.90
2019-03-05T08:55:51.193Z,54.60
2019-03-05T08:58:19.307Z,55.30
2019-03-05T09:00:48.259Z,55.00
2019-03-05T09:03:16.545Z,55.80
2019-03-05T09:05:44.773Z,50.50
2019-03-05T09:08:12.913Z,51.30
2019-03-05T09:10:41.050Z,51.60
2019-03-05T09:13:09.056Z,52.10
2019-03-05T09:18:05.456Z,52.30
2019-03-05T09:20:33.869Z,51.00
2019-03-05T09:23:02.098Z,49.30
2019-03-05T09:25:31.226Z,49.80
2019-03-05T09:27:59.527Z,47.90
2019-03-05T09:30:27.700Z,48.50
2019-03-05T09:32:55.792Z,48.00
2019-03-05T09:35:23.855Z,46.30
2019-03-05T09:40:21.253Z,46.30
2019-03-05T09:42:49.420Z,45.70
2019-03-05T09:45:18.148Z,45.10
2019-03-05T09:47:47.494Z,45.10
2019-03-05T09:50:16.310Z,44.40
2019-03-05T09:52:54.384Z,44.10
2019-03-05T09:55:17.550Z,44.20
2019-03-05T09:57:48.296Z,44.90
2019-03-05T10:00:18.568Z,42.80
2019-03-05T10:05:15.067Z,42.60
2019-03-05T10:07:43.389Z,41.90
2019-03-05T10:10:15.340Z,42.20
2019-03-05T10:12:45.436Z,41.50
2019-03-05T10:15:16.872Z,41.50
2019-03-05T10:17:45.622Z,42.10
2019-03-05T10:20:16.561Z,41.50
2019-03-05T10:22:45.497Z,41.60
2019-03-05T10:25:14.964Z,41.30
2019-03-05T10:27:43.213Z,40.40
2019-03-05T10:30:25.036Z,40.30
2019-03-05T10:32:53.486Z,40.80
2019-03-05T10:35:23.839Z,39.50
2019-03-05T10:37:53.309Z,39.10
2019-03-05T10:40:22.807Z,38.40
2019-03-05T10:42:51.134Z,38.40
2019-03-05T10:45:19.107Z,37.40
2019-03-05T10:47:48.676Z,38.10
2019-03-05T10:50:19.606Z,38.10
2019-03-05T10:52:47.876Z,38.10
2019-03-05T10:55:25.968Z,38.50
2019-03-05T10:57:46.436Z,38.80
2019-03-05T11:00:27.343Z,39.00
2019-03-05T11:02:55.572Z,37.90
2019-03-05T11:05:24.223Z,37.40
2019-03-05T11:07:52.194Z,37.20
2019-03-05T11:10:20.259Z,37.50
2019-03-05T11:12:48.885Z,37.90
2019-03-05T11:15:21.423Z,38.60
2019-03-05T11:17:49.534Z,38.60
2019-03-05T11:20:17.710Z,39.20
2019-03-05T11:22:46.344Z,38.30
2019-03-05T11:25:14.405Z,37.90
2019-03-05T11:27:42.534Z,37.60
2019-03-05T11:30:14.572Z,38.30
2019-03-05T11:32:42.942Z,38.20
2019-03-05T11:35:12.397Z,38.50
2019-03-05T11:37:40.569Z,38.50
2019-03-05T11:40:20.793Z,39.70
2019-03-05T11:42:40.974Z,40.10
2019-03-05T11:45:18.014Z,39.20
2019-03-05T11:50:14.680Z,39.90
2019-03-05T11:55:13.470Z,39.00
2019-03-05T11:57:41.663Z,39.30
2019-03-05T12:00:18.643Z,39.90
2019-03-05T12:02:46.793Z,39.60
2019-03-05T12:07:46.128Z,40.20
2019-03-05T12:10:17.026Z,40.80
2019-03-05T12:12:45.257Z,41.00
2019-03-05T12:15:15.108Z,41.50
2019-03-05T12:20:12.076Z,43.00
2019-03-05T12:25:12.120Z,42.80
2019-03-05T12:27:40.636Z,43.40
2019-03-05T12:30:13.166Z,43.90
2019-03-05T12:32:41.476Z,43.00
2019-03-05T12:35:10.206Z,44.10
2019-03-05T12:40:08.420Z,44.20
2019-03-05T12:42:36.430Z,43.40
2019-03-05T12:45:05.722Z,44.80
2019-03-05T12:47:33.733Z,43.90
2019-03-05T12:50:03.736Z,44.10
2019-03-05T12:52:31.919Z,44.60
2019-03-05T12:55:00.588Z,45.30
2019-03-05T12:57:29.764Z,45.70
2019-03-05T12:59:57.781Z,45.20
2019-03-05T13:02:25.775Z,45.50
2019-03-05T13:04:53.789Z,46.10
2019-03-05T13:07:21.954Z,46.60
2019-03-05T13:09:52.596Z,46.50
2019-03-05T13:12:20.452Z,46.80
2019-03-05T13:14:48.419Z,47.30
2019-03-05T13:17:16.435Z,47.70
2019-03-05T13:24:46.854Z,49.00
2019-03-05T13:27:13.852Z,49.80
2019-03-05T13:29:41.950Z,50.40
2019-03-05T13:32:10.522Z,50.60
2019-03-05T13:34:38.517Z,51.10
2019-03-05T13:39:35.198Z,50.60
2019-03-05T13:42:03.494Z,51.40
2019-03-05T13:44:34.206Z,52.60
2019-03-05T13:47:05.720Z,53.40
2019-03-05T13:50:08.598Z,54.40
2019-03-05T13:56:44.123Z,57.50
2019-03-05T13:59:46.526Z,58.20
2019-03-05T14:02:29.539Z,58.60
2019-03-05T14:05:43.910Z,60.50
2019-03-05T14:09:04.281Z,59.60
2019-03-05T14:14:02.406Z,62.10
2019-03-05T14:16:32.515Z,62.70
2019-03-05T14:19:00.827Z,63.10
2019-03-05T14:21:28.879Z,63.60
2019-03-05T14:23:57.199Z,66.10
2019-03-05T14:26:25.207Z,66.90
2019-03-05T14:28:53.317Z,65.20
2019-03-05T14:31:21.465Z,65.20
2019-03-05T14:33:50.390Z,66.10
2019-03-05T14:36:18.606Z,67.40
2019-03-05T14:38:48.138Z,66.90
2019-03-05T14:41:16.229Z,68.90
2019-03-05T14:43:44.390Z,68.30
2019-03-05T14:46:12.503Z,68.20
2019-03-05T14:48:40.517Z,68.80
2019-03-05T14:51:08.738Z,69.10
2019-03-05T14:53:36.731Z,69.50
2019-03-05T14:58:41.264Z,70.70
2019-03-05T15:01:10.078Z,70.70
2019-03-05T15:06:06.514Z,70.50
2019-03-05T15:08:34.726Z,70.50
2019-03-05T15:11:03.141Z,69.70
2019-03-05T15:13:33.909Z,73.20
2019-03-05T15:18:30.994Z,72.70
2019-03-05T15:23:29.484Z,73.00
2019-03-05T15:25:57.560Z,72.20
2019-03-05T15:28:25.768Z,73.70
2019-03-05T15:30:54.458Z,74.40
2019-03-05T15:33:22.747Z,75.50
2019-03-05T15:35:52.176Z,76.70
2019-03-05T15:38:20.322Z,76.90
2019-03-05T15:40:48.523Z,75.10
2019-03-05T15:43:16.669Z,75.90
2019-03-05T15:45:45.009Z,76.30
2019-03-05T15:48:13.072Z,74.90
2019-03-05T15:50:41.384Z,74.80
2019-03-05T15:53:09.492Z,76.40
2019-03-05T15:55:37.560Z,77.10
2019-03-05T15:58:06.020Z,78.00
2019-03-05T16:00:34.955Z,75.00
2019-03-05T16:03:03.611Z,76.00
2019-03-05T16:08:01.886Z,77.80
2019-03-05T16:10:31.197Z,76.60
2019-03-05T16:12:59.900Z,77.70
2019-03-05T16:15:28.284Z,79.30
2019-03-05T16:17:57.034Z,77.80
2019-03-05T16:20:27.134Z,76.00
2019-03-05T16:22:56.791Z,76.50
2019-03-05T16:25:25.053Z,77.90
2019-03-05T16:27:53.771Z,75.10
2019-03-05T16:30:40.258Z,75.40
2019-03-05T16:33:28.210Z,77.20
2019-03-05T16:36:25.290Z,78.30
2019-03-05T16:41:53.298Z,76.90
2019-03-05T16:44:51.607Z,77.50
2019-03-05T16:47:26.753Z,77.70
2019-03-05T16:50:15.847Z,77.70
2019-03-05T16:53:04.974Z,76.30
2019-03-05T16:55:50.844Z,76.30
2019-03-05T16:58:38.323Z,75.50
2019-03-05T17:01:16.196Z,74.90
2019-03-05T17:06:36.237Z,75.50
2019-03-05T17:09:34.382Z,73.00
2019-03-05T17:12:02.557Z,72.40
2019-03-05T17:14:32.789Z,73.40
2019-03-05T17:17:14.145Z,72.90
2019-03-05T17:22:12.080Z,72.90
2019-03-05T17:24:40.185Z,73.80
2019-03-05T17:27:08.233Z,75.80
2019-03-05T17:29:37.393Z,76.10
2019-03-05T17:32:08.501Z,76.80
2019-03-05T17:34:36.943Z,75.90
2019-03-05T17:37:06.822Z,76.20
2019-03-05T17:39:35.007Z,76.90
2019-03-05T17:42:04.175Z,76.20
2019-03-05T17:47:00.482Z,75.50
2019-03-05T17:49:28.593Z,75.10
2019-03-05T17:51:57.639Z,75.80
2019-03-05T17:54:26.090Z,76.30
2019-03-05T17:56:57.339Z,75.50
2019-03-05T17:59:27.771Z,75.50
2019-03-05T18:04:24.334Z,75.10
2019-03-05T18:06:56.250Z,75.60
2019-03-05T18:09:26.205Z,75.60
2019-03-05T18:11:55.001Z,75.30
2019-03-05T18:14:23.985Z,75.90
2019-03-05T18:19:22.010Z,74.90
2019-03-05T18:21:50.452Z,75.50
2019-03-05T18:24:18.738Z,74.00
2019-03-05T18:26:48.333Z,74.70
2019-03-05T18:29:16.639Z,75.00
2019-03-05T18:34:17.516Z,74.00
2019-03-05T18:36:45.936Z,74.80
2019-03-05T18:41:42.995Z,74.90
2019-03-05T18:44:11.366Z,76.20
2019-03-05T18:46:41.077Z,77.10
2019-03-05T18:49:09.147Z,77.30
2019-03-05T18:51:37.764Z,77.70
2019-03-05T18:54:06.119Z,78.30
2019-03-05T18:59:02.477Z,78.50
2019-03-05T19:01:30.878Z,78.60
2019-03-05T19:03:59.231Z,80.40
2019-03-05T19:06:27.277Z,80.80
2019-03-05T19:08:55.585Z,78.80
2019-03-05T19:13:53.456Z,78.30
2019-03-05T19:16:21.474Z,79.00
2019-03-05T19:21:19.035Z,79.20
2019-03-05T19:23:48.440Z,79.10
2019-03-05T19:26:17.034Z,79.20
2019-03-05T19:28:45.470Z,80.00
2019-03-05T19:31:14.568Z,80.40
2019-03-05T19:33:43.839Z,79.50
2019-03-05T19:36:12.347Z,80.50
2019-03-05T19:38:40.592Z,80.80
2019-03-05T19:43:37.250Z,81.30
2019-03-05T19:48:33.376Z,81.60
2019-03-05T19:51:01.546Z,82.40
2019-03-05T19:53:29.747Z,82.10
2019-03-05T19:55:57.819Z,81.80
2019-03-05T19:58:25.981Z,82.30
2019-03-05T20:03:31.968Z,82.10
2019-03-05T20:05:59.996Z,82.50
2019-03-05T20:10:57.760Z,82.10
2019-03-05T20:13:26.235Z,82.00
2019-03-05T20:18:23.428Z,83.10
2019-03-05T20:20:51.452Z,83.70
2019-03-05T20:23:19.716Z,83.70
2019-03-05T20:28:16.016Z,83.10
2019-03-05T20:33:12.535Z,82.50
2019-03-05T20:35:40.991Z,82.70
2019-03-05T20:38:09.449Z,82.10
2019-03-05T20:40:37.778Z,82.60
2019-03-05T20:43:06.063Z,82.60
2019-03-05T20:45:34.578Z,82.10
2019-03-05T20:48:02.810Z,82.50
2019-03-05T20:50:31.276Z,82.70
2019-03-05T20:52:59.426Z,83.40
2019-03-05T20:55:27.535Z,82.80
2019-03-05T20:57:55.607Z,81.70
2019-03-05T21:03:02.318Z,81.90
2019-03-05T21:08:01.814Z,80.70
2019-03-05T21:10:30.979Z,80.30
2019-03-05T21:12:59.030Z,80.40
2019-03-05T21:15:27.223Z,80.90
2019-03-05T21:17:55.296Z,80.00
2019-03-05T21:20:23.555Z,79.80
2019-03-05T21:22:51.579Z,80.50
2019-03-05T21:25:19.685Z,80.20
2019-03-05T21:30:17.830Z,80.90
2019-03-05T21:32:47.141Z,80.00
2019-03-05T21:35:16.383Z,80.40
2019-03-05T21:37:44.687Z,80.30
2019-03-05T21:40:19.387Z,80.80
2019-03-05T21:42:47.406Z,81.20
2019-03-05T21:45:20.875Z,80.90
2019-03-05T21:50:17.090Z,81.10
2019-03-05T21:52:45.134Z,80.70
2019-03-05T21:55:13.848Z,79.90
2019-03-05T21:57:42.150Z,79.50
2019-03-05T22:00:14.651Z,79.90
2019-03-05T22:02:44.353Z,80.50
2019-03-05T22:05:12.429Z,80.40
2019-03-05T22:10:13.814Z,80.60
2019-03-05T22:12:43.287Z,80.20
2019-03-05T22:15:13.960Z,80.50
2019-03-05T22:17:42.168Z,80.40
2019-03-05T22:20:12.012Z,80.40
2019-03-05T22:22:39.980Z,80.10
2019-03-05T22:25:09.810Z,80.60
2019-03-05T22:27:37.798Z,80.50
2019-03-05T22:32:37.198Z,81.00
2019-03-05T22:35:06.104Z,80.30
2019-03-05T22:37:34.070Z,80.80
2019-03-05T22:40:02.048Z,81.00
2019-03-05T22:42:31.345Z,81.60
2019-03-05T22:44:59.412Z,82.40
2019-03-05T22:47:27.889Z,80.60
2019-03-05T22:49:55.998Z,81.30
2019-03-05T22:52:24.157Z,81.60
2019-03-05T22:54:52.593Z,81.80
2019-03-05T22:57:20.654Z,82.20
2019-03-05T22:59:48.873Z,81.00
2019-03-05T23:02:16.853Z,81.00
2019-03-05T23:04:45.395Z,81.30
2019-03-05T23:07:13.959Z,80.90
2019-03-05T23:09:42.245Z,79.70
2019-03-05T23:12:10.660Z,79.70
2019-03-05T23:14:38.736Z,80.30
2019-03-05T23:22:08.367Z,81.80
2019-03-05T23:24:36.959Z,81.70
2019-03-05T23:29:41.012Z,81.30
2019-03-05T23:32:10.137Z,82.00
2019-03-05T23:34:38.668Z,82.60
2019-03-05T23:39:35.368Z,81.50
2019-03-05T23:44:31.812Z,80.30
2019-03-05T23:47:00.420Z,80.90
2019-03-05T23:49:28.414Z,82.10
2019-03-05T23:51:56.460Z,83.00
2019-03-05T23:54:24.651Z,83.10
2019-03-05T23:56:53.018Z,83.70
